createdAt,value
2019-04-27T00:02:13.460Z,22.80
2019-04-27T00:05:37.815Z,21.07
2019-04-27T00:08:48.869Z,21.97
2019-04-27T00:12:03.514Z,21.57
2019-04-27T00:15:10.824Z,22.53
2019-04-27T00:18:40.826Z,21.53
2019-04-27T00:22:07.832Z,22.40
2019-04-27T00:25:14.562Z,22.40
2019-04-27T00:28:19.862Z,23.90
2019-04-27T00:31:25.218Z,20.60
2019-04-27T00:34:30.534Z,23.83
2019-04-27T00:37:47.115Z,22.87
2019-04-27T00:40:56.714Z,23.73
2019-04-27T00:44:03.413Z,23.50
2019-04-27T00:47:08.758Z,24.47
2019-04-27T00:50:14.435Z,24.20
2019-04-27T00:53:21.265Z,25.10
2019-04-27T00:56:54.049Z,23.73
2019-04-27T01:00:26.104Z,23.07
2019-04-27T01:03:36.120Z,22.40
2019-04-27T01:06:43.882Z,23.80
2019-04-27T01:09:49.154Z,22.60
2019-04-27T01:12:54.730Z,24.47
2019-04-27T01:15:59.927Z,22.80
2019-04-27T01:19:05.156Z,21.50
2019-04-27T01:22:10.506Z,21.10
2019-04-27T01:25:16.074Z,22.17
2019-04-27T01:28:29.096Z,20.70
2019-04-27T01:31:35.646Z,21.40
2019-04-27T01:34:41.007Z,20.17
2019-04-27T01:37:48.754Z,20.97
2019-04-27T01:40:54.041Z,20.37
2019-04-27T01:43:59.312Z,20.00
2019-04-27T01:47:04.543Z,18.13
2019-04-27T01:50:10.277Z,18.27
2019-04-27T01:53:15.633Z,18.07
2019-04-27T01:56:21.071Z,17.97
2019-04-27T01:59:26.427Z,18.13
2019-04-27T02:02:44.216Z,18.10
2019-04-27T02:05:56.668Z,16.30
2019-04-27T02:09:01.919Z,16.00
2019-04-27T02:12:09.394Z,15.67
2019-04-27T02:15:15.217Z,16.50
2019-04-27T02:18:20.533Z,17.00
2019-04-27T02:21:25.946Z,15.37
2019-04-27T02:24:31.294Z,16.20
2019-04-27T02:27:38.917Z,15.80
2019-04-27T02:31:06.147Z,16.80
2019-04-27T02:34:15.140Z,15.53
2019-04-27T02:37:20.591Z,15.60
2019-04-27T02:40:51.285Z,13.70
2019-04-27T02:44:21.823Z,13.70
2019-04-27T02:47:29.499Z,13.20
2019-04-27T02:50:34.956Z,15.50
2019-04-27T02:54:00.326Z,14.17
2019-04-27T02:57:05.781Z,13.50
2019-04-27T03:00:12.843Z,13.80
2019-04-27T03:03:20.417Z,13.80
2019-04-27T03:06:25.189Z,13.90
2019-04-27T03:09:30.639Z,12.93
2019-04-27T03:12:42.314Z,13.03
2019-04-27T03:16:06.759Z,12.73
2019-04-27T03:19:21.895Z,13.17
2019-04-27T03:22:34.935Z,13.30
2019-04-27T03:25:46.103Z,13.20
2019-04-27T03:28:51.877Z,12.60
2019-04-27T03:32:01.575Z,12.00
2019-04-27T03:35:04.542Z,11.90
2019-04-27T03:38:12.312Z,12.50
2019-04-27T03:41:19.096Z,11.33
2019-04-27T03:44:25.287Z,11.90
2019-04-27T03:47:30.998Z,11.60
2019-04-27T03:50:42.989Z,12.23
2019-04-27T03:54:10.412Z,10.87
2019-04-27T03:57:24.758Z,11.80
2019-04-27T04:00:30.277Z,12.73
2019-04-27T04:03:35.817Z,10.40
2019-04-27T04:06:41.092Z,9.87
2019-04-27T04:09:46.518Z,10.57
2019-04-27T04:13:01.466Z,10.63
2019-04-27T04:16:29.504Z,10.07
2019-04-27T04:19:47.875Z,9.90
2019-04-27T04:22:41.854Z,9.70
2019-04-27T04:25:49.679Z,10.17
2019-04-27T04:28:55.741Z,9.40
2019-04-27T04:32:02.032Z,10.60
2019-04-27T04:35:22.382Z,10.47
2019-04-27T04:38:30.199Z,9.70
2019-04-27T04:41:44.496Z,10.30
2019-04-27T04:45:10.773Z,8.80
2019-04-27T04:48:20.059Z,8.60
2019-04-27T04:51:25.378Z,8.10
2019-04-27T04:54:30.701Z,7.37
2019-04-27T04:57:36.246Z,7.60
2019-04-27T05:00:41.531Z,7.90
2019-04-27T05:03:48.818Z,8.00
2019-04-27T05:06:54.185Z,7.90
2019-04-27T05:10:01.840Z,7.60
2019-04-27T05:13:07.087Z,7.30
2019-04-27T05:16:12.420Z,6.90
2019-04-27T05:19:18.883Z,7.60
2019-04-27T05:22:24.232Z,6.60
2019-04-27T05:25:29.464Z,6.80
2019-04-27T05:28:34.792Z,6.40
2019-04-27T05:31:40.215Z,6.20
2019-04-27T05:34:45.569Z,6.67
2019-04-27T05:37:50.792Z,6.03
2019-04-27T05:40:56.100Z,6.17
2019-04-27T05:44:23.800Z,5.40
2019-04-27T05:47:48.506Z,6.60
2019-04-27T05:50:58.270Z,5.90
2019-04-27T05:53:58.688Z,5.97
2019-04-27T05:57:04.260Z,7.23
2019-04-27T06:00:10.502Z,6.40
2019-04-27T06:03:16.049Z,6.50
2019-04-27T06:06:21.525Z,7.10
2019-04-27T06:09:29.928Z,6.40
2019-04-27T06:12:35.166Z,6.07
2019-04-27T06:15:41.346Z,6.40
2019-04-27T06:18:46.663Z,6.33
2019-04-27T06:21:52.089Z,6.33
2019-04-27T06:24:57.449Z,6.30
2019-04-27T06:28:02.679Z,6.40
2019-04-27T06:31:08.770Z,6.60
2019-04-27T06:34:14.203Z,6.90
2019-04-27T06:37:21.505Z,7.07
2019-04-27T06:40:26.531Z,5.50
2019-04-27T06:43:31.870Z,5.80
2019-04-27T06:46:38.557Z,6.20
2019-04-27T06:49:46.408Z,5.80
2019-04-27T06:52:51.663Z,5.70
2019-04-27T06:55:58.515Z,5.60
2019-04-27T06:59:04.071Z,5.70
2019-04-27T07:02:09.479Z,5.60
2019-04-27T07:05:14.969Z,4.80
2019-04-27T07:08:20.409Z,5.10
2019-04-27T07:11:25.703Z,5.20
2019-04-27T07:14:31.961Z,5.37
2019-04-27T07:17:38.756Z,4.97
2019-04-27T07:20:44.325Z,5.27
2019-04-27T07:23:59.556Z,5.70
2019-04-27T07:27:05.090Z,5.47
2019-04-27T07:30:11.809Z,5.90
2019-04-27T07:33:18.583Z,5.70
2019-04-27T07:36:24.032Z,5.30
2019-04-27T07:39:29.856Z,6.20
2019-04-27T07:42:35.156Z,4.83
2019-04-27T07:45:40.473Z,4.50
2019-04-27T07:48:45.751Z,4.23
2019-04-27T07:51:51.112Z,4.33
2019-04-27T07:54:56.379Z,4.20
2019-04-27T07:58:05.067Z,3.60
2019-04-27T08:01:10.234Z,4.13
2019-04-27T08:04:15.635Z,4.23
2019-04-27T08:07:20.956Z,3.40
2019-04-27T08:10:26.238Z,3.73
2019-04-27T08:13:31.570Z,3.77
2019-04-27T08:16:38.374Z,3.33
2019-04-27T08:19:49.384Z,3.47
2019-04-27T08:22:54.788Z,3.10
2019-04-27T08:26:00.169Z,2.97
2019-04-27T08:29:22.951Z,3.30
2019-04-27T08:32:35.941Z,3.80
2019-04-27T08:35:41.389Z,3.93
2019-04-27T08:38:48.914Z,3.40
2019-04-27T08:41:56.048Z,3.67
2019-04-27T08:45:01.400Z,3.30
2019-04-27T08:48:06.771Z,3.90
2019-04-27T08:51:12.102Z,3.80
2019-04-27T08:54:19.211Z,3.37
2019-04-27T08:57:24.699Z,3.80
2019-04-27T09:00:30.023Z,3.40
2019-04-27T09:03:35.336Z,3.43
2019-04-27T09:06:42.278Z,3.50
2019-04-27T09:09:49.795Z,3.83
2019-04-27T09:13:02.280Z,3.13
2019-04-27T09:16:28.729Z,3.70
2019-04-27T09:19:40.088Z,3.70
2019-04-27T09:22:46.422Z,3.80
2019-04-27T09:25:51.758Z,3.80
2019-04-27T09:28:57.094Z,3.90
2019-04-27T09:32:02.479Z,3.90
2019-04-27T09:35:08.148Z,3.90
2019-04-27T09:38:13.449Z,3.83
2019-04-27T09:41:18.815Z,4.00
2019-04-27T09:44:24.166Z,3.97
2019-04-27T09:47:30.654Z,4.50
2019-04-27T09:50:36.178Z,4.27
2019-04-27T09:53:41.518Z,4.77
2019-04-27T09:56:46.919Z,4.10
2019-04-27T09:59:52.187Z,4.50
2019-04-27T10:02:57.502Z,4.33
2019-04-27T10:06:02.931Z,4.57
2019-04-27T10:09:08.742Z,5.20
2019-04-27T10:12:15.809Z,5.30
2019-04-27T10:15:22.878Z,4.90
2019-04-27T10:18:28.354Z,4.93
2019-04-27T10:21:33.694Z,5.13
2019-04-27T10:24:40.159Z,5.70
2019-04-27T10:27:47.981Z,5.50
2019-04-27T10:30:53.403Z,5.53
2019-04-27T10:33:58.752Z,5.23
2019-04-27T10:37:05.907Z,5.17
2019-04-27T10:40:11.205Z,5.60
2019-04-27T10:43:16.814Z,4.97
2019-04-27T10:46:22.167Z,4.50
2019-04-27T10:49:28.410Z,4.60
2019-04-27T10:52:33.829Z,4.40
2019-04-27T10:55:39.105Z,4.50
2019-04-27T10:58:45.663Z,4.60
2019-04-27T11:01:52.347Z,4.30
2019-04-27T11:05:03.686Z,4.63
2019-04-27T11:08:09.154Z,4.50
2019-04-27T11:11:14.503Z,4.53
2019-04-27T11:14:19.913Z,4.90
2019-04-27T11:17:26.707Z,4.73
2019-04-27T11:20:32.120Z,4.27
2019-04-27T11:23:39.455Z,4.80
2019-04-27T11:26:46.615Z,4.40
2019-04-27T11:29:53.633Z,5.30
2019-04-27T11:33:00.409Z,4.90
2019-04-27T11:36:25.487Z,4.77
2019-04-27T11:39:33.419Z,4.90
2019-04-27T11:42:38.950Z,5.10
2019-04-27T11:45:46.705Z,5.23
2019-04-27T11:48:52.214Z,5.60
2019-04-27T11:52:00.388Z,5.30
2019-04-27T11:55:07.854Z,5.33
2019-04-27T11:58:13.315Z,4.90
2019-04-27T12:01:19.993Z,5.57
2019-04-27T12:04:26.316Z,4.53
2019-04-27T12:07:31.860Z,4.37
2019-04-27T12:10:37.270Z,4.90
2019-04-27T12:13:42.904Z,4.57
2019-04-27T12:16:48.348Z,4.60
2019-04-27T12:19:56.093Z,5.30
2019-04-27T12:23:01.595Z,4.33
2019-04-27T12:26:09.688Z,3.93
2019-04-27T12:29:19.714Z,4.40
2019-04-27T12:32:25.840Z,3.57
2019-04-27T12:35:31.255Z,5.03
2019-04-27T12:38:40.479Z,3.50
2019-04-27T12:41:47.441Z,4.30
2019-04-27T12:44:53.845Z,3.97
2019-04-27T12:47:59.437Z,4.20
2019-04-27T12:51:04.740Z,4.23
2019-04-27T12:54:23.473Z,3.73
2019-04-27T12:57:46.488Z,3.60
2019-04-27T13:00:54.213Z,4.10
2019-04-27T13:03:59.824Z,4.30
2019-04-27T13:07:08.534Z,3.70
2019-04-27T13:10:17.139Z,3.87
2019-04-27T13:13:24.127Z,4.13
2019-04-27T13:16:31.700Z,3.93
2019-04-27T13:19:37.148Z,4.50
2019-04-27T13:22:42.457Z,4.60
2019-04-27T13:25:47.935Z,4.60
2019-04-27T13:28:53.222Z,4.77
2019-04-27T13:32:00.803Z,4.23
2019-04-27T13:35:06.973Z,5.13
2019-04-27T13:38:12.277Z,5.10
2019-04-27T13:41:27.772Z,4.60
2019-04-27T13:44:26.161Z,5.00
2019-04-27T13:47:42.836Z,3.40
2019-04-27T13:50:50.508Z,3.50
2019-04-27T13:53:55.960Z,3.50
2019-04-27T13:57:01.520Z,2.97
2019-04-27T14:00:08.431Z,3.37
2019-04-27T14:03:14.662Z,3.17
2019-04-27T14:06:22.733Z,3.10
2019-04-27T14:09:31.023Z,3.57
2019-04-27T14:12:38.444Z,3.47
2019-04-27T14:15:43.645Z,3.93
2019-04-27T14:18:48.953Z,3.30
2019-04-27T14:21:56.873Z,3.37
2019-04-27T14:25:02.129Z,3.63
2019-04-27T14:28:08.515Z,4.80
2019-04-27T14:31:14.650Z,3.30
2019-04-27T14:34:22.392Z,3.77
2019-04-27T14:37:28.616Z,3.90
2019-04-27T14:40:34.192Z,3.80
2019-04-27T14:43:39.533Z,4.03
2019-04-27T14:46:44.798Z,3.87
2019-04-27T14:49:50.153Z,4.77
2019-04-27T14:52:55.523Z,4.50
2019-04-27T14:56:00.983Z,4.60
2019-04-27T14:59:06.382Z,4.63
2019-04-27T15:02:12.377Z,4.23
2019-04-27T15:05:17.802Z,4.80
2019-04-27T15:08:25.716Z,5.30
2019-04-27T15:11:32.464Z,5.17
2019-04-27T15:14:44.648Z,4.80
2019-04-27T15:17:51.573Z,4.90
2019-04-27T15:20:58.551Z,4.60
2019-04-27T15:24:09.242Z,4.63
2019-04-27T15:27:12.895Z,4.90
2019-04-27T15:30:25.627Z,5.00
2019-04-27T15:33:53.275Z,4.10
2019-04-27T15:37:04.234Z,4.03
2019-04-27T15:40:38.301Z,4.83
2019-04-27T15:43:45.052Z,5.07
2019-04-27T15:46:51.540Z,4.83
2019-04-27T15:49:58.665Z,4.57
2019-04-27T15:53:09.406Z,5.37
2019-04-27T15:56:14.157Z,4.80
2019-04-27T15:59:22.003Z,4.90
2019-04-27T16:02:28.900Z,5.10
2019-04-27T16:05:36.192Z,4.63
2019-04-27T16:08:47.401Z,4.60
2019-04-27T16:11:58.316Z,4.43
2019-04-27T16:15:00.489Z,4.70
2019-04-27T16:18:05.938Z,5.00
2019-04-27T16:21:11.353Z,5.13
2019-04-27T16:24:17.201Z,5.13
2019-04-27T16:27:25.839Z,4.60
2019-04-27T16:30:32.789Z,4.60
2019-04-27T16:33:39.102Z,4.07
2019-04-27T16:36:47.479Z,4.73
2019-04-27T16:39:53.664Z,4.70
2019-04-27T16:42:59.353Z,3.90
2019-04-27T16:46:05.515Z,4.40
2019-04-27T16:49:14.040Z,4.03
2019-04-27T16:52:19.255Z,4.40
2019-04-27T16:55:28.028Z,3.73
2019-04-27T16:58:34.982Z,4.07
2019-04-27T17:01:46.322Z,4.17
2019-04-27T17:04:52.852Z,4.27
2019-04-27T17:07:55.438Z,3.53
2019-04-27T17:11:08.379Z,4.30
2019-04-27T17:14:19.975Z,4.23
2019-04-27T17:17:47.131Z,5.23
2019-04-27T17:20:52.612Z,4.67
2019-04-27T17:24:02.920Z,4.67
2019-04-27T17:27:06.171Z,4.70
2019-04-27T17:30:11.939Z,4.83
2019-04-27T17:33:26.493Z,4.73
2019-04-27T17:36:32.204Z,4.70
2019-04-27T17:39:38.688Z,5.80
2019-04-27T17:42:44.238Z,4.90
2019-04-27T17:45:49.711Z,5.40
2019-04-27T17:48:55.086Z,6.00
2019-04-27T17:52:02.825Z,5.33
2019-04-27T17:55:08.266Z,5.90
2019-04-27T17:58:13.658Z,6.03
2019-04-27T18:01:22.621Z,6.27
2019-04-27T18:04:26.024Z,6.60
2019-04-27T18:07:34.890Z,6.30
2019-04-27T18:10:38.393Z,6.23
2019-04-27T18:13:45.501Z,6.70
2019-04-27T18:16:51.016Z,6.70
2019-04-27T18:19:59.654Z,6.30
2019-04-27T18:23:15.020Z,5.90
2019-04-27T18:26:48.837Z,6.43
2019-04-27T18:29:45.938Z,7.13
2019-04-27T18:32:51.237Z,6.57
2019-04-27T18:36:04.742Z,6.10
2019-04-27T18:39:05.524Z,5.83
2019-04-27T18:42:12.182Z,6.57
2019-04-27T18:45:18.410Z,6.10
2019-04-27T18:48:33.607Z,5.90
2019-04-27T18:52:04.259Z,6.50
2019-04-27T18:55:11.210Z,5.70
2019-04-27T18:58:18.646Z,5.40
2019-04-27T19:01:23.279Z,5.10
2019-04-27T19:04:28.563Z,5.20
2019-04-27T19:07:33.872Z,4.80
2019-04-27T19:10:39.569Z,4.90
2019-04-27T19:13:44.987Z,4.93
2019-04-27T19:16:50.367Z,4.80
2019-04-27T19:19:55.917Z,5.27
2019-04-27T19:23:01.149Z,5.03
2019-04-27T19:26:21.810Z,4.90
2019-04-27T19:29:40.087Z,5.47
2019-04-27T19:32:46.418Z,4.80
2019-04-27T19:35:51.689Z,5.03
2019-04-27T19:38:58.373Z,4.70
2019-04-27T19:42:04.109Z,4.90
2019-04-27T19:45:09.828Z,5.33
2019-04-27T19:48:14.881Z,5.37
2019-04-27T19:51:20.278Z,5.20
2019-04-27T19:54:28.245Z,5.23
2019-04-27T19:57:39.232Z,5.20
2019-04-27T20:00:54.824Z,4.67
2019-04-27T20:04:08.661Z,5.80
2019-04-27T20:07:14.092Z,4.87
2019-04-27T20:10:20.721Z,5.50
2019-04-27T20:13:26.171Z,5.80
2019-04-27T20:16:31.855Z,5.60
2019-04-27T20:19:37.173Z,5.30
2019-04-27T20:22:42.497Z,5.30
2019-04-27T20:25:47.854Z,5.37
2019-04-27T20:28:53.081Z,4.80
2019-04-27T20:32:01.263Z,5.40
2019-04-27T20:35:13.571Z,5.47
2019-04-27T20:38:15.903Z,5.73
2019-04-27T20:41:31.906Z,5.50
2019-04-27T20:44:37.306Z,5.63
2019-04-27T20:47:42.754Z,5.70
2019-04-27T20:50:48.274Z,6.00
2019-04-27T20:53:55.348Z,4.93
2019-04-27T20:57:11.499Z,5.57
2019-04-27T21:00:21.905Z,5.70
2019-04-27T21:03:41.097Z,5.20
2019-04-27T21:06:51.516Z,5.27
2019-04-27T21:09:56.909Z,6.10
2019-04-27T21:13:02.208Z,5.37
2019-04-27T21:16:13.281Z,5.40
2019-04-27T21:19:18.806Z,5.87
2019-04-27T21:22:27.437Z,5.70
2019-04-27T21:25:33.593Z,5.73
2019-04-27T21:28:44.612Z,6.30
2019-04-27T21:31:51.887Z,5.73
2019-04-27T21:34:58.793Z,5.27
2019-04-27T21:38:08.356Z,5.37
2019-04-27T21:41:20.888Z,5.10
2019-04-27T21:44:32.116Z,5.30
2019-04-27T21:47:43.783Z,5.70
2019-04-27T21:50:51.430Z,6.90
2019-04-27T21:54:11.087Z,5.60
2019-04-27T21:57:18.722Z,6.30
2019-04-27T22:01:05.090Z,5.67
2019-04-27T22:04:11.970Z,5.40
2019-04-27T22:07:17.495Z,5.60
2019-04-27T22:10:22.894Z,5.87
2019-04-27T22:13:28.249Z,5.70
2019-04-27T22:16:33.727Z,6.10
2019-04-27T22:19:41.185Z,6.47
2019-04-27T22:22:51.994Z,7.33
2019-04-27T22:25:57.418Z,6.47
2019-04-27T22:29:02.744Z,6.80
2019-04-27T22:32:08.183Z,6.90
2019-04-27T22:35:14.167Z,6.50
2019-04-27T22:38:19.478Z,6.90
2019-04-27T22:41:31.451Z,7.27
2019-04-27T22:44:41.490Z,8.37
2019-04-27T22:47:46.864Z,7.17
2019-04-27T22:50:52.319Z,7.27
2019-04-27T22:53:57.658Z,7.27
2019-04-27T22:57:07.452Z,6.30
2019-04-27T23:00:34.668Z,7.40
2019-04-27T23:03:41.487Z,7.80
2019-04-27T23:06:46.942Z,7.77
2019-04-27T23:09:52.398Z,8.13
2019-04-27T23:12:58.289Z,8.67
2019-04-27T23:16:05.443Z,8.30
2019-04-27T23:19:16.881Z,8.80
2019-04-27T23:22:23.052Z,7.00
2019-04-27T23:25:30.137Z,8.50
2019-04-27T23:28:36.303Z,7.90
2019-04-27T23:32:14.334Z,8.30
2019-04-27T23:35:21.676Z,7.90
2019-04-27T23:38:30.973Z,7.37
2019-04-27T23:41:38.227Z,8.50
2019-04-27T23:44:45.837Z,6.80
2019-04-27T23:47:51.748Z,6.60
2019-04-27T23:51:10.819Z,6.27
2019-04-27T23:54:14.288Z,7.60
2019-04-27T23:57:21.798Z,7.43
